sensor_id;sensor_type;location;lat;lon;timestamp;temperature;humidity
17994;DHT22;9122;48.406;9.984;2022-08-02T00:01:29;21.80;92.00
17994;DHT22;9122;48.406;9.984;2022-08-02T00:04:13;21.80;92.20
17994;DHT22;9122;48.406;9.984;2022-08-02T00:06:58;21.80;92.10
17994;DHT22;9122;48.406;9.984;2022-08-02T00:09:43;21.80;92.30
17994;DHT22;9122;48.406;9.984;2022-08-02T00:12:27;21.80;92.30
17994;DHT22;9122;48.406;9.984;2022-08-02T00:15:11;21.70;92.20
17994;DHT22;9122;48.406;9.984;2022-08-02T00:17:56;21.70;92.30
17994;DHT22;9122;48.406;9.984;2022-08-02T00:20:41;21.70;92.30
17994;DHT22;9122;48.406;9.984;2022-08-02T00:23:25;21.70;92.20
17994;DHT22;9122;48.406;9.984;2022-08-02T00:26:10;21.70;92.00
17994;DHT22;9122;48.406;9.984;2022-08-02T00:28:54;21.70;91.80
17994;DHT22;9122;48.406;9.984;2022-08-02T00:31:38;21.60;91.70
17994;DHT22;9122;48.406;9.984;2022-08-02T00:34:23;21.60;91.80
17994;DHT22;9122;48.406;9.984;2022-08-02T00:37:08;21.60;91.80
17994;DHT22;9122;48.406;9.984;2022-08-02T00:39:52;21.60;91.80
17994;DHT22;9122;48.406;9.984;2022-08-02T00:42:38;21.50;91.80
17994;DHT22;9122;48.406;9.984;2022-08-02T00:45:22;21.50;91.80
17994;DHT22;9122;48.406;9.984;2022-08-02T00:48:08;21.50;91.70
17994;DHT22;9122;48.406;9.984;2022-08-02T00:50:52;21.50;91.60
17994;DHT22;9122;48.406;9.984;2022-08-02T00:53:37;21.40;91.40
17994;DHT22;9122;48.406;9.984;2022-08-02T00:56:21;21.40;91.20
17994;DHT22;9122;48.406;9.984;2022-08-02T00:59:06;21.40;91.30
17994;DHT22;9122;48.406;9.984;2022-08-02T01:01:50;21.40;91.30
17994;DHT22;9122;48.406;9.984;2022-08-02T01:04:35;21.30;91.70
17994;DHT22;9122;48.406;9.984;2022-08-02T01:07:19;21.30;91.40
17994;DHT22;9122;48.406;9.984;2022-08-02T01:10:05;21.20;91.50
17994;DHT22;9122;48.406;9.984;2022-08-02T01:12:49;21.20;91.60
17994;DHT22;9122;48.406;9.984;2022-08-02T01:15:40;21.20;91.70
17994;DHT22;9122;48.406;9.984;2022-08-02T01:18:39;21.20;91.90
17994;DHT22;9122;48.406;9.984;2022-08-02T01:21:34;21.10;92.00
17994;DHT22;9122;48.406;9.984;2022-08-02T01:31:19;21.10;92.20
17994;DHT22;9122;48.406;9.984;2022-08-02T01:37:25;21.00;92.30
17994;DHT22;9122;48.406;9.984;2022-08-02T01:40:26;21.00;92.40
17994;DHT22;9122;48.406;9.984;2022-08-02T01:43:11;21.00;92.50
17994;DHT22;9122;48.406;9.984;2022-08-02T01:45:57;20.90;92.50
17994;DHT22;9122;48.406;9.984;2022-08-02T01:48:43;20.90;92.60
17994;DHT22;9122;48.406;9.984;2022-08-02T01:51:28;20.90;92.70
17994;DHT22;9122;48.406;9.984;2022-08-02T01:54:34;20.80;92.80
17994;DHT22;9122;48.406;9.984;2022-08-02T01:57:20;20.80;92.90
17994;DHT22;9122;48.406;9.984;2022-08-02T02:00:07;20.80;92.90
17994;DHT22;9122;48.406;9.984;2022-08-02T02:02:55;20.80;93.00
17994;DHT22;9122;48.406;9.984;2022-08-02T02:05:40;20.80;93.10
17994;DHT22;9122;48.406;9.984;2022-08-02T02:08:29;20.70;93.10
17994;DHT22;9122;48.406;9.984;2022-08-02T02:11:14;20.70;93.20
17994;DHT22;9122;48.406;9.984;2022-08-02T02:14:00;20.70;93.20
17994;DHT22;9122;48.406;9.984;2022-08-02T02:16:47;20.70;93.30
17994;DHT22;9122;48.406;9.984;2022-08-02T02:19:33;20.60;93.60
17994;DHT22;9122;48.406;9.984;2022-08-02T02:22:19;20.60;93.40
17994;DHT22;9122;48.406;9.984;2022-08-02T02:25:05;20.60;93.40
17994;DHT22;9122;48.406;9.984;2022-08-02T02:27:59;20.60;93.40
17994;DHT22;9122;48.406;9.984;2022-08-02T02:30:47;20.60;93.50
17994;DHT22;9122;48.406;9.984;2022-08-02T02:33:36;20.60;93.50
17994;DHT22;9122;48.406;9.984;2022-08-02T02:36:21;20.50;93.40
17994;DHT22;9122;48.406;9.984;2022-08-02T02:39:07;20.50;93.40
17994;DHT22;9122;48.406;9.984;2022-08-02T02:41:54;20.50;93.40
17994;DHT22;9122;48.406;9.984;2022-08-02T02:44:40;20.50;93.40
17994;DHT22;9122;48.406;9.984;2022-08-02T02:47:27;20.40;93.50
17994;DHT22;9122;48.406;9.984;2022-08-02T02:50:12;20.40;93.60
17994;DHT22;9122;48.406;9.984;2022-08-02T02:52:57;20.40;93.60
17994;DHT22;9122;48.406;9.984;2022-08-02T02:55:42;20.40;93.70
17994;DHT22;9122;48.406;9.984;2022-08-02T02:58:27;20.40;93.80
17994;DHT22;9122;48.406;9.984;2022-08-02T03:01:12;20.40;93.90
17994;DHT22;9122;48.406;9.984;2022-08-02T03:04:14;20.30;93.90
17994;DHT22;9122;48.406;9.984;2022-08-02T03:06:59;20.30;94.00
17994;DHT22;9122;48.406;9.984;2022-08-02T03:09:44;20.30;94.10
17994;DHT22;9122;48.406;9.984;2022-08-02T03:12:29;20.20;94.10
17994;DHT22;9122;48.406;9.984;2022-08-02T03:15:14;20.20;94.20
17994;DHT22;9122;48.406;9.984;2022-08-02T03:17:59;20.20;94.20
17994;DHT22;9122;48.406;9.984;2022-08-02T03:20:44;20.20;94.20
17994;DHT22;9122;48.406;9.984;2022-08-02T03:23:28;20.20;94.30
17994;DHT22;9122;48.406;9.984;2022-08-02T03:26:13;20.10;94.30
17994;DHT22;9122;48.406;9.984;2022-08-02T03:28:58;20.10;94.40
17994;DHT22;9122;48.406;9.984;2022-08-02T03:31:44;20.10;94.40
17994;DHT22;9122;48.406;9.984;2022-08-02T03:34:29;20.10;94.50
17994;DHT22;9122;48.406;9.984;2022-08-02T03:37:14;20.10;94.50
17994;DHT22;9122;48.406;9.984;2022-08-02T03:40:00;20.10;94.60
17994;DHT22;9122;48.406;9.984;2022-08-02T03:42:44;20.00;94.60
17994;DHT22;9122;48.406;9.984;2022-08-02T03:45:29;20.00;94.60
17994;DHT22;9122;48.406;9.984;2022-08-02T03:48:16;20.00;94.60
17994;DHT22;9122;48.406;9.984;2022-08-02T03:51:01;20.00;94.60
17994;DHT22;9122;48.406;9.984;2022-08-02T03:53:47;20.00;94.70
17994;DHT22;9122;48.406;9.984;2022-08-02T03:56:31;20.00;94.60
17994;DHT22;9122;48.406;9.984;2022-08-02T03:59:17;20.00;94.60
17994;DHT22;9122;48.406;9.984;2022-08-02T04:02:01;20.00;94.50
17994;DHT22;9122;48.406;9.984;2022-08-02T04:04:46;19.90;94.50
17994;DHT22;9122;48.406;9.984;2022-08-02T04:07:31;19.90;94.60
17994;DHT22;9122;48.406;9.984;2022-08-02T04:10:16;19.90;94.50
17994;DHT22;9122;48.406;9.984;2022-08-02T04:13:01;19.90;94.50
17994;DHT22;9122;48.406;9.984;2022-08-02T04:15:49;19.90;94.50
17994;DHT22;9122;48.406;9.984;2022-08-02T04:18:42;19.80;94.40
17994;DHT22;9122;48.406;9.984;2022-08-02T04:21:33;19.80;94.40
17994;DHT22;9122;48.406;9.984;2022-08-02T04:24:25;19.80;94.30
17994;DHT22;9122;48.406;9.984;2022-08-02T04:27:11;19.80;94.30
17994;DHT22;9122;48.406;9.984;2022-08-02T04:29:56;19.80;94.20
17994;DHT22;9122;48.406;9.984;2022-08-02T04:32:43;19.80;94.20
17994;DHT22;9122;48.406;9.984;2022-08-02T04:35:28;19.80;94.20
17994;DHT22;9122;48.406;9.984;2022-08-02T04:38:14;19.80;94.10
17994;DHT22;9122;48.406;9.984;2022-08-02T04:40:58;19.80;94.10
17994;DHT22;9122;48.406;9.984;2022-08-02T04:43:43;19.80;94.10
17994;DHT22;9122;48.406;9.984;2022-08-02T04:46:28;19.80;94.20
17994;DHT22;9122;48.406;9.984;2022-08-02T04:49:12;19.80;94.30
17994;DHT22;9122;48.406;9.984;2022-08-02T04:51:57;19.80;94.40
17994;DHT22;9122;48.406;9.984;2022-08-02T04:54:44;19.70;94.60
17994;DHT22;9122;48.406;9.984;2022-08-02T04:57:28;19.70;94.40
17994;DHT22;9122;48.406;9.984;2022-08-02T05:00:31;19.70;94.50
17994;DHT22;9122;48.406;9.984;2022-08-02T05:03:16;19.80;94.70
17994;DHT22;9122;48.406;9.984;2022-08-02T05:06:00;19.80;94.70
17994;DHT22;9122;48.406;9.984;2022-08-02T05:08:46;19.70;94.70
17994;DHT22;9122;48.406;9.984;2022-08-02T05:11:30;19.80;94.80
17994;DHT22;9122;48.406;9.984;2022-08-02T05:14:15;19.80;94.80
17994;DHT22;9122;48.406;9.984;2022-08-02T05:16:59;19.80;94.90
17994;DHT22;9122;48.406;9.984;2022-08-02T05:19:44;19.80;94.90
17994;DHT22;9122;48.406;9.984;2022-08-02T05:22:28;19.80;94.90
17994;DHT22;9122;48.406;9.984;2022-08-02T05:25:13;19.80;94.90
17994;DHT22;9122;48.406;9.984;2022-08-02T05:27:58;19.80;94.90
17994;DHT22;9122;48.406;9.984;2022-08-02T05:30:42;19.80;94.90
17994;DHT22;9122;48.406;9.984;2022-08-02T05:33:26;19.80;94.90
17994;DHT22;9122;48.406;9.984;2022-08-02T05:36:11;19.80;94.80
17994;DHT22;9122;48.406;9.984;2022-08-02T05:38:55;19.80;94.80
17994;DHT22;9122;48.406;9.984;2022-08-02T05:41:40;19.90;94.80
17994;DHT22;9122;48.406;9.984;2022-08-02T05:44:25;19.90;94.70
17994;DHT22;9122;48.406;9.984;2022-08-02T05:47:09;19.90;94.70
17994;DHT22;9122;48.406;9.984;2022-08-02T05:49:54;20.00;94.70
17994;DHT22;9122;48.406;9.984;2022-08-02T05:52:55;20.00;94.70
17994;DHT22;9122;48.406;9.984;2022-08-02T06:01:47;20.20;94.20
17994;DHT22;9122;48.406;9.984;2022-08-02T06:04:40;20.20;94.10
17994;DHT22;9122;48.406;9.984;2022-08-02T06:07:29;20.30;94.10
17994;DHT22;9122;48.406;9.984;2022-08-02T06:10:19;20.30;94.10
17994;DHT22;9122;48.406;9.984;2022-08-02T06:15:50;20.50;94.00
17994;DHT22;9122;48.406;9.984;2022-08-02T06:18:36;20.50;93.90
17994;DHT22;9122;48.406;9.984;2022-08-02T06:21:25;20.60;93.90
17994;DHT22;9122;48.406;9.984;2022-08-02T06:24:12;20.90;93.80
17994;DHT22;9122;48.406;9.984;2022-08-02T06:26:57;20.70;93.80
17994;DHT22;9122;48.406;9.984;2022-08-02T06:29:43;20.80;93.70
17994;DHT22;9122;48.406;9.984;2022-08-02T06:32:27;20.90;93.60
17994;DHT22;9122;48.406;9.984;2022-08-02T06:35:12;20.90;93.60
17994;DHT22;9122;48.406;9.984;2022-08-02T06:37:59;21.00;93.50
17994;DHT22;9122;48.406;9.984;2022-08-02T06:41:03;21.00;93.40
17994;DHT22;9122;48.406;9.984;2022-08-02T06:44:01;21.00;93.40
17994;DHT22;9122;48.406;9.984;2022-08-02T06:46:46;21.10;93.40
17994;DHT22;9122;48.406;9.984;2022-08-02T06:49:31;21.10;93.30
17994;DHT22;9122;48.406;9.984;2022-08-02T06:52:16;21.20;93.20
17994;DHT22;9122;48.406;9.984;2022-08-02T06:55:02;21.30;93.10
17994;DHT22;9122;48.406;9.984;2022-08-02T06:57:47;21.40;92.90
17994;DHT22;9122;48.406;9.984;2022-08-02T07:00:32;21.50;92.70
17994;DHT22;9122;48.406;9.984;2022-08-02T07:03:17;21.50;92.70
17994;DHT22;9122;48.406;9.984;2022-08-02T07:06:02;21.60;92.70
17994;DHT22;9122;48.406;9.984;2022-08-02T07:08:46;21.70;92.80
17994;DHT22;9122;48.406;9.984;2022-08-02T07:11:30;21.80;92.70
17994;DHT22;9122;48.406;9.984;2022-08-02T07:14:15;21.80;92.40
17994;DHT22;9122;48.406;9.984;2022-08-02T07:16:59;21.90;92.20
17994;DHT22;9122;48.406;9.984;2022-08-02T07:19:44;21.90;92.10
17994;DHT22;9122;48.406;9.984;2022-08-02T07:22:28;22.00;92.00
17994;DHT22;9122;48.406;9.984;2022-08-02T07:25:13;22.10;92.00
17994;DHT22;9122;48.406;9.984;2022-08-02T07:27:57;22.20;91.80
17994;DHT22;9122;48.406;9.984;2022-08-02T07:30:42;22.20;91.60
17994;DHT22;9122;48.406;9.984;2022-08-02T07:33:27;22.30;91.50
17994;DHT22;9122;48.406;9.984;2022-08-02T07:36:11;22.40;91.50
17994;DHT22;9122;48.406;9.984;2022-08-02T07:38:56;22.50;91.40
17994;DHT22;9122;48.406;9.984;2022-08-02T07:41:41;22.60;91.20
17994;DHT22;9122;48.406;9.984;2022-08-02T07:44:25;22.60;91.10
17994;DHT22;9122;48.406;9.984;2022-08-02T07:47:14;22.70;91.00
17994;DHT22;9122;48.406;9.984;2022-08-02T07:49:59;22.70;90.90
17994;DHT22;9122;48.406;9.984;2022-08-02T07:52:44;22.80;90.90
17994;DHT22;9122;48.406;9.984;2022-08-02T07:55:29;22.90;91.10
17994;DHT22;9122;48.406;9.984;2022-08-02T07:58:13;23.00;90.70
17994;DHT22;9122;48.406;9.984;2022-08-02T08:00:58;23.00;90.60
17994;DHT22;9122;48.406;9.984;2022-08-02T08:03:42;23.10;90.50
17994;DHT22;9122;48.406;9.984;2022-08-02T08:06:27;23.20;90.30
17994;DHT22;9122;48.406;9.984;2022-08-02T08:09:11;23.30;90.10
17994;DHT22;9122;48.406;9.984;2022-08-02T08:11:56;23.40;90.00
17994;DHT22;9122;48.406;9.984;2022-08-02T08:14:41;23.40;89.50
17994;DHT22;9122;48.406;9.984;2022-08-02T08:17:25;23.60;89.30
17994;DHT22;9122;48.406;9.984;2022-08-02T08:20:10;23.60;88.80
17994;DHT22;9122;48.406;9.984;2022-08-02T08:22:54;23.80;88.50
17994;DHT22;9122;48.406;9.984;2022-08-02T08:25:39;23.90;88.20
17994;DHT22;9122;48.406;9.984;2022-08-02T08:28:24;24.00;87.90
17994;DHT22;9122;48.406;9.984;2022-08-02T08:31:08;24.10;87.40
17994;DHT22;9122;48.406;9.984;2022-08-02T08:33:53;24.20;86.60
17994;DHT22;9122;48.406;9.984;2022-08-02T08:36:37;24.30;86.20
17994;DHT22;9122;48.406;9.984;2022-08-02T08:39:22;24.40;85.70
17994;DHT22;9122;48.406;9.984;2022-08-02T08:42:07;24.50;85.10
17994;DHT22;9122;48.406;9.984;2022-08-02T08:44:54;24.60;84.70
17994;DHT22;9122;48.406;9.984;2022-08-02T08:47:40;24.60;84.20
17994;DHT22;9122;48.406;9.984;2022-08-02T08:50:25;24.70;84.20
17994;DHT22;9122;48.406;9.984;2022-08-02T08:53:10;24.90;83.70
17994;DHT22;9122;48.406;9.984;2022-08-02T08:55:57;25.00;84.10
17994;DHT22;9122;48.406;9.984;2022-08-02T08:58:43;25.00;83.20
17994;DHT22;9122;48.406;9.984;2022-08-02T09:01:30;25.10;82.30
17994;DHT22;9122;48.406;9.984;2022-08-02T09:04:15;25.20;82.10
17994;DHT22;9122;48.406;9.984;2022-08-02T09:07:00;25.40;81.70
17994;DHT22;9122;48.406;9.984;2022-08-02T09:09:44;25.40;81.20
17994;DHT22;9122;48.406;9.984;2022-08-02T09:12:28;25.50;80.60
17994;DHT22;9122;48.406;9.984;2022-08-02T09:15:13;25.60;80.50
17994;DHT22;9122;48.406;9.984;2022-08-02T09:17:57;25.70;80.30
17994;DHT22;9122;48.406;9.984;2022-08-02T09:20:59;25.80;80.10
17994;DHT22;9122;48.406;9.984;2022-08-02T09:23:47;25.90;80.00
17994;DHT22;9122;48.406;9.984;2022-08-02T09:26:32;26.00;79.40
17994;DHT22;9122;48.406;9.984;2022-08-02T09:29:22;26.00;78.70
17994;DHT22;9122;48.406;9.984;2022-08-02T09:32:07;26.10;78.30
17994;DHT22;9122;48.406;9.984;2022-08-02T09:34:52;26.30;77.80
17994;DHT22;9122;48.406;9.984;2022-08-02T09:37:37;26.40;77.30
17994;DHT22;9122;48.406;9.984;2022-08-02T09:40:34;26.40;76.60
17994;DHT22;9122;48.406;9.984;2022-08-02T09:43:18;26.60;75.50
17994;DHT22;9122;48.406;9.984;2022-08-02T09:49:03;26.70;74.40
17994;DHT22;9122;48.406;9.984;2022-08-02T09:51:49;26.80;74.10
17994;DHT22;9122;48.406;9.984;2022-08-02T09:54:38;26.90;74.20
17994;DHT22;9122;48.406;9.984;2022-08-02T09:57:28;27.00;73.40
17994;DHT22;9122;48.406;9.984;2022-08-02T10:00:12;27.10;72.50
17994;DHT22;9122;48.406;9.984;2022-08-02T10:03:07;27.20;71.90
17994;DHT22;9122;48.406;9.984;2022-08-02T10:05:54;27.30;71.10
17994;DHT22;9122;48.406;9.984;2022-08-02T10:08:40;27.30;70.80
17994;DHT22;9122;48.406;9.984;2022-08-02T10:11:26;27.40;70.30
17994;DHT22;9122;48.406;9.984;2022-08-02T10:14:11;27.50;69.60
17994;DHT22;9122;48.406;9.984;2022-08-02T10:16:57;27.50;69.10
17994;DHT22;9122;48.406;9.984;2022-08-02T10:19:41;27.60;68.80
17994;DHT22;9122;48.406;9.984;2022-08-02T10:22:26;27.60;68.50
17994;DHT22;9122;48.406;9.984;2022-08-02T10:25:11;27.60;68.30
17994;DHT22;9122;48.406;9.984;2022-08-02T10:27:56;27.70;68.10
17994;DHT22;9122;48.406;9.984;2022-08-02T10:30:43;27.10;66.40
17994;DHT22;9122;48.406;9.984;2022-08-02T10:33:29;27.70;65.90
17994;DHT22;9122;48.406;9.984;2022-08-02T10:36:15;27.80;65.70
17994;DHT22;9122;48.406;9.984;2022-08-02T10:39:01;27.80;65.50
17994;DHT22;9122;48.406;9.984;2022-08-02T10:41:48;27.90;64.80
17994;DHT22;9122;48.406;9.984;2022-08-02T10:44:34;27.80;64.70
17994;DHT22;9122;48.406;9.984;2022-08-02T10:47:22;27.80;65.60
17994;DHT22;9122;48.406;9.984;2022-08-02T10:50:07;27.80;64.90
17994;DHT22;9122;48.406;9.984;2022-08-02T10:56:08;27.80;63.70
17994;DHT22;9122;48.406;9.984;2022-08-02T10:59:23;27.80;63.40
17994;DHT22;9122;48.406;9.984;2022-08-02T11:02:09;27.80;63.60
17994;DHT22;9122;48.406;9.984;2022-08-02T11:07:46;27.70;64.60
17994;DHT22;9122;48.406;9.984;2022-08-02T11:13:18;27.70;64.50
17994;DHT22;9122;48.406;9.984;2022-08-02T11:16:04;27.60;64.50
17994;DHT22;9122;48.406;9.984;2022-08-02T11:21:36;27.70;65.70
17994;DHT22;9122;48.406;9.984;2022-08-02T11:24:26;27.80;65.70
17994;DHT22;9122;48.406;9.984;2022-08-02T11:27:19;27.80;65.00
17994;DHT22;9122;48.406;9.984;2022-08-02T11:30:11;27.90;64.00
17994;DHT22;9122;48.406;9.984;2022-08-02T11:32:57;28.00;63.40
17994;DHT22;9122;48.406;9.984;2022-08-02T11:35:42;28.10;63.20
17994;DHT22;9122;48.406;9.984;2022-08-02T11:38:27;28.20;62.60
17994;DHT22;9122;48.406;9.984;2022-08-02T11:41:22;28.30;62.10
17994;DHT22;9122;48.406;9.984;2022-08-02T11:44:06;28.40;61.10
17994;DHT22;9122;48.406;9.984;2022-08-02T11:46:59;28.40;60.70
17994;DHT22;9122;48.406;9.984;2022-08-02T11:49:44;28.40;59.60
17994;DHT22;9122;48.406;9.984;2022-08-02T11:52:33;28.40;59.50
17994;DHT22;9122;48.406;9.984;2022-08-02T11:55:24;28.40;59.10
17994;DHT22;9122;48.406;9.984;2022-08-02T11:58:09;28.50;59.80
17994;DHT22;9122;48.406;9.984;2022-08-02T12:00:54;28.50;58.80
17994;DHT22;9122;48.406;9.984;2022-08-02T12:03:39;28.50;58.80
17994;DHT22;9122;48.406;9.984;2022-08-02T12:06:24;28.60;59.50
17994;DHT22;9122;48.406;9.984;2022-08-02T12:09:12;28.70;58.50
17994;DHT22;9122;48.406;9.984;2022-08-02T12:11:58;28.70;58.00
17994;DHT22;9122;48.406;9.984;2022-08-02T12:14:43;28.70;57.50
17994;DHT22;9122;48.406;9.984;2022-08-02T12:17:27;28.80;57.40
17994;DHT22;9122;48.406;9.984;2022-08-02T12:20:35;28.80;57.00
17994;DHT22;9122;48.406;9.984;2022-08-02T12:23:20;28.80;56.90
17994;DHT22;9122;48.406;9.984;2022-08-02T12:26:06;28.80;56.70
17994;DHT22;9122;48.406;9.984;2022-08-02T12:28:55;28.80;56.80
17994;DHT22;9122;48.406;9.984;2022-08-02T12:31:43;28.90;56.80
17994;DHT22;9122;48.406;9.984;2022-08-02T12:34:29;28.90;56.10
17994;DHT22;9122;48.406;9.984;2022-08-02T12:37:13;28.90;55.90
17994;DHT22;9122;48.406;9.984;2022-08-02T12:39:58;28.90;56.10
17994;DHT22;9122;48.406;9.984;2022-08-02T12:43:02;28.90;56.40
17994;DHT22;9122;48.406;9.984;2022-08-02T12:45:52;28.90;56.60
17994;DHT22;9122;48.406;9.984;2022-08-02T12:48:38;28.90;56.50
17994;DHT22;9122;48.406;9.984;2022-08-02T12:51:36;28.80;56.30
17994;DHT22;9122;48.406;9.984;2022-08-02T12:54:22;28.80;56.20
17994;DHT22;9122;48.406;9.984;2022-08-02T12:57:11;28.70;56.30
17994;DHT22;9122;48.406;9.984;2022-08-02T12:59:56;28.80;56.30
17994;DHT22;9122;48.406;9.984;2022-08-02T13:02:40;28.70;56.00
17994;DHT22;9122;48.406;9.984;2022-08-02T13:05:25;28.70;56.30
17994;DHT22;9122;48.406;9.984;2022-08-02T13:08:10;28.70;55.90
17994;DHT22;9122;48.406;9.984;2022-08-02T13:10:54;28.70;55.90
17994;DHT22;9122;48.406;9.984;2022-08-02T13:13:39;28.70;55.70
17994;DHT22;9122;48.406;9.984;2022-08-02T13:16:24;28.60;55.80
17994;DHT22;9122;48.406;9.984;2022-08-02T13:19:09;28.60;55.80
17994;DHT22;9122;48.406;9.984;2022-08-02T13:21:53;28.60;55.70
17994;DHT22;9122;48.406;9.984;2022-08-02T13:24:38;28.60;56.10
17994;DHT22;9122;48.406;9.984;2022-08-02T13:27:24;28.60;56.50
17994;DHT22;9122;48.406;9.984;2022-08-02T13:30:09;28.60;56.80
17994;DHT22;9122;48.406;9.984;2022-08-02T13:32:53;28.60;56.50
17994;DHT22;9122;48.406;9.984;2022-08-02T13:35:38;28.60;56.20
17994;DHT22;9122;48.406;9.984;2022-08-02T13:38:22;28.60;56.30
17994;DHT22;9122;48.406;9.984;2022-08-02T13:41:07;28.60;56.10
17994;DHT22;9122;48.406;9.984;2022-08-02T13:43:52;28.50;55.90
17994;DHT22;9122;48.406;9.984;2022-08-02T13:46:36;28.60;56.20
17994;DHT22;9122;48.406;9.984;2022-08-02T13:49:22;28.60;55.90
17994;DHT22;9122;48.406;9.984;2022-08-02T13:52:07;28.50;55.70
17994;DHT22;9122;48.406;9.984;2022-08-02T13:54:52;28.50;55.80
17994;DHT22;9122;48.406;9.984;2022-08-02T13:57:36;28.50;55.60
17994;DHT22;9122;48.406;9.984;2022-08-02T14:00:21;28.50;55.60
17994;DHT22;9122;48.406;9.984;2022-08-02T14:03:06;28.50;55.70
17994;DHT22;9122;48.406;9.984;2022-08-02T14:05:51;28.50;55.50
17994;DHT22;9122;48.406;9.984;2022-08-02T14:08:36;28.50;55.40
17994;DHT22;9122;48.406;9.984;2022-08-02T14:11:21;28.40;55.10
17994;DHT22;9122;48.406;9.984;2022-08-02T14:14:06;28.50;55.30
17994;DHT22;9122;48.406;9.984;2022-08-02T14:16:51;28.40;55.50
17994;DHT22;9122;48.406;9.984;2022-08-02T14:19:36;28.40;55.00
17994;DHT22;9122;48.406;9.984;2022-08-02T14:22:21;28.40;54.90
17994;DHT22;9122;48.406;9.984;2022-08-02T14:25:06;28.40;54.80
17994;DHT22;9122;48.406;9.984;2022-08-02T14:27:51;28.40;55.00
17994;DHT22;9122;48.406;9.984;2022-08-02T14:30:35;28.40;55.10
17994;DHT22;9122;48.406;9.984;2022-08-02T14:33:20;28.40;54.90
17994;DHT22;9122;48.406;9.984;2022-08-02T14:36:05;28.40;54.60
17994;DHT22;9122;48.406;9.984;2022-08-02T14:38:50;28.40;54.50
17994;DHT22;9122;48.406;9.984;2022-08-02T14:41:34;28.40;54.50
17994;DHT22;9122;48.406;9.984;2022-08-02T14:44:20;28.40;54.40
17994;DHT22;9122;48.406;9.984;2022-08-02T14:47:05;28.50;54.40
17994;DHT22;9122;48.406;9.984;2022-08-02T14:49:49;28.40;54.00
17994;DHT22;9122;48.406;9.984;2022-08-02T14:52:34;28.40;54.20
17994;DHT22;9122;48.406;9.984;2022-08-02T14:55:19;28.50;54.40
17994;DHT22;9122;48.406;9.984;2022-08-02T14:58:03;28.50;54.50
17994;DHT22;9122;48.406;9.984;2022-08-02T15:00:48;28.50;54.20
17994;DHT22;9122;48.406;9.984;2022-08-02T15:03:32;28.50;54.10
17994;DHT22;9122;48.406;9.984;2022-08-02T15:06:17;28.50;53.90
17994;DHT22;9122;48.406;9.984;2022-08-02T15:09:01;28.50;53.90
17994;DHT22;9122;48.406;9.984;2022-08-02T15:11:46;28.50;53.70
17994;DHT22;9122;48.406;9.984;2022-08-02T15:14:31;28.50;53.90
17994;DHT22;9122;48.406;9.984;2022-08-02T15:17:15;28.50;53.70
17994;DHT22;9122;48.406;9.984;2022-08-02T15:19:59;28.50;53.70
17994;DHT22;9122;48.406;9.984;2022-08-02T15:22:44;28.50;53.80
17994;DHT22;9122;48.406;9.984;2022-08-02T15:25:28;28.50;54.10
17994;DHT22;9122;48.406;9.984;2022-08-02T15:28:13;28.50;54.10
17994;DHT22;9122;48.406;9.984;2022-08-02T15:30:58;28.50;54.50
17994;DHT22;9122;48.406;9.984;2022-08-02T15:33:42;28.50;54.50
17994;DHT22;9122;48.406;9.984;2022-08-02T15:36:29;28.50;54.50
17994;DHT22;9122;48.406;9.984;2022-08-02T15:39:14;28.50;54.50
17994;DHT22;9122;48.406;9.984;2022-08-02T15:41:59;28.50;54.70
17994;DHT22;9122;48.406;9.984;2022-08-02T15:44:43;28.50;54.50
17994;DHT22;9122;48.406;9.984;2022-08-02T15:47:29;28.50;54.60
17994;DHT22;9122;48.406;9.984;2022-08-02T15:50:14;28.50;54.80
17994;DHT22;9122;48.406;9.984;2022-08-02T15:52:58;28.50;54.70
17994;DHT22;9122;48.406;9.984;2022-08-02T15:55:43;28.50;54.40
17994;DHT22;9122;48.406;9.984;2022-08-02T15:58:28;28.50;54.40
17994;DHT22;9122;48.406;9.984;2022-08-02T16:01:12;28.50;54.50
17994;DHT22;9122;48.406;9.984;2022-08-02T16:03:57;28.50;54.20
17994;DHT22;9122;48.406;9.984;2022-08-02T16:06:42;28.50;54.10
17994;DHT22;9122;48.406;9.984;2022-08-02T16:09:27;28.50;54.00
17994;DHT22;9122;48.406;9.984;2022-08-02T16:12:12;28.50;54.00
17994;DHT22;9122;48.406;9.984;2022-08-02T16:14:56;28.50;54.10
17994;DHT22;9122;48.406;9.984;2022-08-02T16:17:41;28.50;54.20
17994;DHT22;9122;48.406;9.984;2022-08-02T16:20:26;28.50;54.00
17994;DHT22;9122;48.406;9.984;2022-08-02T16:23:10;28.50;54.50
17994;DHT22;9122;48.406;9.984;2022-08-02T16:25:55;28.50;54.70
17994;DHT22;9122;48.406;9.984;2022-08-02T16:28:40;28.50;54.20
17994;DHT22;9122;48.406;9.984;2022-08-02T16:31:24;28.50;54.00
17994;DHT22;9122;48.406;9.984;2022-08-02T16:34:09;28.50;53.80
17994;DHT22;9122;48.406;9.984;2022-08-02T16:36:53;28.50;54.10
17994;DHT22;9122;48.406;9.984;2022-08-02T16:39:38;28.50;54.10
17994;DHT22;9122;48.406;9.984;2022-08-02T16:42:23;28.50;53.70
17994;DHT22;9122;48.406;9.984;2022-08-02T16:45:08;28.50;53.50
17994;DHT22;9122;48.406;9.984;2022-08-02T16:47:52;28.50;53.60
17994;DHT22;9122;48.406;9.984;2022-08-02T16:50:37;28.50;54.20
17994;DHT22;9122;48.406;9.984;2022-08-02T16:53:22;28.50;54.10
17994;DHT22;9122;48.406;9.984;2022-08-02T16:56:06;28.50;53.90
17994;DHT22;9122;48.406;9.984;2022-08-02T16:58:51;28.50;53.90
17994;DHT22;9122;48.406;9.984;2022-08-02T17:01:36;28.50;53.80
17994;DHT22;9122;48.406;9.984;2022-08-02T17:04:20;28.50;54.10
17994;DHT22;9122;48.406;9.984;2022-08-02T17:07:05;28.50;54.30
17994;DHT22;9122;48.406;9.984;2022-08-02T17:09:50;28.50;54.40
17994;DHT22;9122;48.406;9.984;2022-08-02T17:12:34;28.50;54.60
17994;DHT22;9122;48.406;9.984;2022-08-02T17:15:19;28.50;54.40
17994;DHT22;9122;48.406;9.984;2022-08-02T17:18:03;28.50;54.30
17994;DHT22;9122;48.406;9.984;2022-08-02T17:20:48;28.50;54.10
17994;DHT22;9122;48.406;9.984;2022-08-02T17:23:32;28.50;54.00
17994;DHT22;9122;48.406;9.984;2022-08-02T17:26:18;28.50;54.00
17994;DHT22;9122;48.406;9.984;2022-08-02T17:29:03;28.50;54.10
17994;DHT22;9122;48.406;9.984;2022-08-02T17:31:49;28.50;54.50
17994;DHT22;9122;48.406;9.984;2022-08-02T17:34:34;28.50;55.00
17994;DHT22;9122;48.406;9.984;2022-08-02T17:37:19;28.40;55.50
17994;DHT22;9122;48.406;9.984;2022-08-02T17:40:04;28.40;56.40
17994;DHT22;9122;48.406;9.984;2022-08-02T17:42:48;28.40;55.70
17994;DHT22;9122;48.406;9.984;2022-08-02T17:45:33;28.40;55.50
17994;DHT22;9122;48.406;9.984;2022-08-02T17:48:17;28.40;54.90
17994;DHT22;9122;48.406;9.984;2022-08-02T17:51:02;28.30;55.00
17994;DHT22;9122;48.406;9.984;2022-08-02T17:53:46;28.30;54.90
17994;DHT22;9122;48.406;9.984;2022-08-02T17:56:31;28.30;54.60
17994;DHT22;9122;48.406;9.984;2022-08-02T17:59:21;28.30;55.60
17994;DHT22;9122;48.406;9.984;2022-08-02T18:02:05;28.30;55.00
17994;DHT22;9122;48.406;9.984;2022-08-02T18:04:53;28.20;55.30
17994;DHT22;9122;48.406;9.984;2022-08-02T18:07:38;28.20;55.40
17994;DHT22;9122;48.406;9.984;2022-08-02T18:10:22;28.20;55.00
17994;DHT22;9122;48.406;9.984;2022-08-02T18:13:07;28.20;54.80
17994;DHT22;9122;48.406;9.984;2022-08-02T18:15:52;28.20;55.30
17994;DHT22;9122;48.406;9.984;2022-08-02T18:18:37;28.10;56.00